createdAt,value
2023-01-21T00:01:10.366Z,62.73
2023-01-21T00:03:37.694Z,62.66
2023-01-21T00:06:05.629Z,62.18
2023-01-21T00:08:32.778Z,62.52
2023-01-21T00:11:14.795Z,62.23
2023-01-21T00:13:43.661Z,62.99
2023-01-21T00:16:11.428Z,62.96
2023-01-21T00:18:39.080Z,63.08
2023-01-21T00:21:06.336Z,63.20
2023-01-21T00:23:33.359Z,63.46
2023-01-21T00:26:02.738Z,63.65
2023-01-21T00:28:32.716Z,63.42
2023-01-21T00:31:02.153Z,63.76
2023-01-21T00:33:30.196Z,63.90
2023-01-21T00:36:01.630Z,63.51
2023-01-21T00:38:29.893Z,64.08
2023-01-21T00:41:11.951Z,63.98
2023-01-21T00:43:39.503Z,64.14
2023-01-21T00:46:07.616Z,64.02
2023-01-21T00:48:35.170Z,64.01
2023-01-21T00:51:02.503Z,63.87
2023-01-21T00:53:36.269Z,63.89
2023-01-21T00:56:06.972Z,64.36
2023-01-21T00:58:34.400Z,64.08
2023-01-21T01:01:09.946Z,64.15
2023-01-21T01:03:38.727Z,64.39
2023-01-21T01:06:10.680Z,64.20
2023-01-21T01:08:38.240Z,64.25
2023-01-21T01:11:06.463Z,64.30
2023-01-21T01:13:35.597Z,64.54
2023-01-21T01:16:03.162Z,64.45
2023-01-21T01:18:33.584Z,63.98
2023-01-21T01:21:01.521Z,64.55
2023-01-21T01:23:29.056Z,64.14
2023-01-21T01:26:02.624Z,64.53
2023-01-21T01:28:30.946Z,64.79
2023-01-21T01:30:59.403Z,64.75
2023-01-21T01:33:27.470Z,64.64
2023-01-21T01:35:54.670Z,64.34
2023-01-21T01:38:23.005Z,64.84
2023-01-21T01:40:52.529Z,64.69
2023-01-21T01:43:49.797Z,64.74
2023-01-21T01:46:17.049Z,64.87
2023-01-21T01:48:48.450Z,65.12
2023-01-21T01:51:21.575Z,65.24
2023-01-21T01:53:48.967Z,65.14
2023-01-21T01:56:16.366Z,65.28
2023-01-21T01:58:45.455Z,65.19
2023-01-21T02:01:12.735Z,65.50
2023-01-21T02:03:46.165Z,65.33
2023-01-21T02:06:15.792Z,65.48
2023-01-21T02:08:45.708Z,65.56
2023-01-21T02:11:16.168Z,65.33
2023-01-21T02:13:48.959Z,65.52
2023-01-21T02:16:37.581Z,65.46
2023-01-21T02:20:00.258Z,65.56
2023-01-21T02:22:37.596Z,65.52
2023-01-21T02:25:53.427Z,65.21
2023-01-21T02:28:45.031Z,65.85
2023-01-21T02:32:00.245Z,65.62
2023-01-21T02:35:01.340Z,65.57
2023-01-21T02:37:46.309Z,65.88
2023-01-21T02:40:37.984Z,65.74
2023-01-21T02:43:50.644Z,65.72
2023-01-21T02:46:26.744Z,65.70
2023-01-21T02:49:02.386Z,66.05
2023-01-21T02:51:29.294Z,66.28
2023-01-21T02:53:56.297Z,66.16
2023-01-21T02:56:26.498Z,65.91
2023-01-21T02:59:03.863Z,65.98
2023-01-21T03:02:14.114Z,65.40
2023-01-21T03:05:19.013Z,65.96
2023-01-21T03:08:04.097Z,65.54
2023-01-21T03:10:49.966Z,65.85
2023-01-21T03:13:49.638Z,65.81
2023-01-21T03:16:37.049Z,65.89
2023-01-21T03:19:07.010Z,65.72
2023-01-21T03:21:35.597Z,65.58
2023-01-21T03:24:03.224Z,65.84
2023-01-21T03:26:40.201Z,65.85
2023-01-21T03:29:15.254Z,65.44
2023-01-21T03:31:46.549Z,65.49
2023-01-21T03:34:16.791Z,65.76
2023-01-21T03:36:57.203Z,65.54
2023-01-21T03:39:53.886Z,65.55
2023-01-21T03:42:21.309Z,65.68
2023-01-21T03:44:48.279Z,65.48
2023-01-21T03:47:34.655Z,65.14
2023-01-21T03:50:11.599Z,65.37
2023-01-21T03:52:44.498Z,65.37
2023-01-21T03:55:14.939Z,65.21
2023-01-21T03:57:41.988Z,65.52
2023-01-21T04:00:10.323Z,65.63
2023-01-21T04:02:37.454Z,65.76
2023-01-21T04:05:04.951Z,65.76
2023-01-21T04:07:31.999Z,65.84
2023-01-21T04:09:58.946Z,65.76
2023-01-21T04:12:25.962Z,65.84
2023-01-21T04:14:53.307Z,65.32
2023-01-21T04:17:20.570Z,65.78
2023-01-21T04:19:47.555Z,65.74
2023-01-21T04:22:14.553Z,65.84
2023-01-21T04:24:41.576Z,65.76
2023-01-21T04:27:08.643Z,65.23
2023-01-21T04:29:35.723Z,65.25
2023-01-21T04:32:03.188Z,65.44
2023-01-21T04:34:30.212Z,65.09
2023-01-21T04:36:57.175Z,65.32
2023-01-21T04:39:24.108Z,65.87
2023-01-21T04:41:51.863Z,65.79
2023-01-21T04:44:18.844Z,65.60
2023-01-21T04:46:46.009Z,65.42
2023-01-21T04:49:13.239Z,65.34
2023-01-21T04:51:40.196Z,65.59
2023-01-21T04:54:07.201Z,65.42
2023-01-21T04:56:34.166Z,65.74
2023-01-21T04:59:01.200Z,65.67
2023-01-21T05:01:28.333Z,65.28
2023-01-21T05:03:55.520Z,65.71
2023-01-21T05:06:22.441Z,65.48
2023-01-21T05:08:49.520Z,65.13
2023-01-21T05:11:19.195Z,65.07
2023-01-21T05:13:46.383Z,65.11
2023-01-21T05:16:14.822Z,65.34
2023-01-21T05:18:42.042Z,65.33
2023-01-21T05:21:09.163Z,64.83
2023-01-21T05:23:36.085Z,65.41
2023-01-21T05:26:03.637Z,65.06
2023-01-21T05:28:30.619Z,64.86
2023-01-21T05:31:02.568Z,65.06
2023-01-21T05:33:34.709Z,65.22
2023-01-21T05:36:03.350Z,64.74
2023-01-21T05:38:30.463Z,65.18
2023-01-21T05:41:01.257Z,64.91
2023-01-21T05:43:29.344Z,64.70
2023-01-21T05:45:57.041Z,64.76
2023-01-21T05:48:24.494Z,64.80
2023-01-21T05:50:52.030Z,64.80
2023-01-21T05:53:19.770Z,65.10
2023-01-21T05:55:47.251Z,64.79
2023-01-21T05:58:14.382Z,64.94
2023-01-21T06:00:42.009Z,64.75
2023-01-21T06:03:09.180Z,64.93
2023-01-21T06:05:36.261Z,64.71
2023-01-21T06:08:03.812Z,64.89
2023-01-21T06:10:30.918Z,64.95
2023-01-21T06:12:58.269Z,64.73
2023-01-21T06:15:25.833Z,65.07
2023-01-21T06:17:53.583Z,65.18
2023-01-21T06:20:21.523Z,64.67
2023-01-21T06:22:48.670Z,64.78
2023-01-21T06:25:15.869Z,64.59
2023-01-21T06:27:43.216Z,64.83
2023-01-21T06:30:11.538Z,64.18
2023-01-21T06:32:38.923Z,64.62
2023-01-21T06:35:06.810Z,64.61
2023-01-21T06:37:33.885Z,64.41
2023-01-21T06:40:01.160Z,64.33
2023-01-21T06:42:28.312Z,64.38
2023-01-21T06:44:55.380Z,64.34
2023-01-21T06:47:22.620Z,64.55
2023-01-21T06:49:49.853Z,64.38
2023-01-21T06:52:17.064Z,64.50
2023-01-21T06:54:44.536Z,64.43
2023-01-21T06:57:12.145Z,64.58
2023-01-21T06:59:39.213Z,64.09
2023-01-21T07:02:07.754Z,64.52
2023-01-21T07:04:35.016Z,64.14
2023-01-21T07:07:02.150Z,64.53
2023-01-21T07:09:29.196Z,64.48
2023-01-21T07:11:56.234Z,64.82
2023-01-21T07:14:23.221Z,64.28
2023-01-21T07:16:50.188Z,64.38
2023-01-21T07:19:17.363Z,64.62
2023-01-21T07:21:44.249Z,64.36
2023-01-21T07:24:11.540Z,64.57
2023-01-21T07:26:38.613Z,64.30
2023-01-21T07:29:06.674Z,64.71
2023-01-21T07:31:34.067Z,64.62
2023-01-21T07:34:01.368Z,64.91
2023-01-21T07:36:28.482Z,64.71
2023-01-21T07:38:55.885Z,65.10
2023-01-21T07:41:23.737Z,65.34
2023-01-21T07:43:51.835Z,64.79
2023-01-21T07:46:20.807Z,64.66
2023-01-21T07:48:51.787Z,64.76
2023-01-21T07:51:22.982Z,64.86
2023-01-21T07:53:50.253Z,64.48
2023-01-21T07:56:18.524Z,64.64
2023-01-21T07:58:47.051Z,64.99
2023-01-21T08:01:15.215Z,64.38
2023-01-21T08:03:42.500Z,65.04
2023-01-21T08:06:09.756Z,64.99
2023-01-21T08:08:36.876Z,64.81
2023-01-21T08:11:04.018Z,64.87
2023-01-21T08:13:31.269Z,64.77
2023-01-21T08:15:58.561Z,64.31
2023-01-21T08:18:26.184Z,64.87
2023-01-21T08:20:58.383Z,64.42
2023-01-21T08:23:27.646Z,64.45
2023-01-21T08:25:55.497Z,64.04
2023-01-21T08:28:23.353Z,64.13
2023-01-21T08:30:51.140Z,64.19
2023-01-21T08:33:18.543Z,64.24
2023-01-21T08:35:47.023Z,64.52
2023-01-21T08:38:13.996Z,64.23
2023-01-21T08:40:41.201Z,64.33
2023-01-21T08:43:09.328Z,64.03
2023-01-21T08:45:36.291Z,64.03
2023-01-21T08:48:04.248Z,64.18
2023-01-21T08:50:31.323Z,63.97
2023-01-21T08:52:58.359Z,64.03
2023-01-21T08:55:26.979Z,63.99
2023-01-21T08:57:55.828Z,64.05
2023-01-21T09:00:24.039Z,64.25
2023-01-21T09:02:51.911Z,64.14
2023-01-21T09:05:19.728Z,63.95
2023-01-21T09:07:47.209Z,63.87
2023-01-21T09:10:34.406Z,63.95
2023-01-21T09:13:09.546Z,63.80
2023-01-21T09:15:41.920Z,63.72
2023-01-21T09:18:09.594Z,64.14
2023-01-21T09:20:37.328Z,64.40
2023-01-21T09:23:24.813Z,64.09
2023-01-21T09:26:14.643Z,64.14
2023-01-21T09:28:43.837Z,63.79
2023-01-21T09:31:17.217Z,63.63
2023-01-21T09:33:48.239Z,63.43
2023-01-21T09:36:20.044Z,63.70
2023-01-21T09:38:48.937Z,63.80
2023-01-21T09:41:25.389Z,63.96
2023-01-21T09:44:13.251Z,64.14
2023-01-21T09:46:46.210Z,63.65
2023-01-21T09:49:39.160Z,63.67
2023-01-21T09:52:25.869Z,63.77
2023-01-21T09:54:53.852Z,64.29
2023-01-21T09:57:59.629Z,63.66
2023-01-21T10:01:07.029Z,63.93
2023-01-21T10:03:40.365Z,63.67
2023-01-21T10:06:22.437Z,63.49
2023-01-21T10:09:15.785Z,63.47
2023-01-21T10:12:13.859Z,63.78
2023-01-21T10:15:13.076Z,63.40
2023-01-21T10:17:52.535Z,63.89
2023-01-21T10:20:36.642Z,63.25
2023-01-21T10:23:29.129Z,63.53
2023-01-21T10:25:59.336Z,63.20
2023-01-21T10:28:30.517Z,62.91
2023-01-21T10:31:16.597Z,63.10
2023-01-21T10:33:43.835Z,63.10
2023-01-21T10:36:54.402Z,62.78
2023-01-21T10:39:27.287Z,62.99
2023-01-21T10:42:33.652Z,63.43
2023-01-21T10:45:12.756Z,62.95
2023-01-21T10:48:12.457Z,62.48
2023-01-21T10:50:57.232Z,62.91
2023-01-21T10:54:03.973Z,62.76
2023-01-21T10:56:43.551Z,63.16
2023-01-21T10:59:17.301Z,63.20
2023-01-21T11:02:04.036Z,63.14
2023-01-21T11:04:31.151Z,63.52
2023-01-21T11:07:02.611Z,62.65
2023-01-21T11:09:34.555Z,62.93
2023-01-21T11:12:02.899Z,63.35
2023-01-21T11:14:30.272Z,62.88
2023-01-21T11:16:58.171Z,62.88
2023-01-21T11:19:29.018Z,62.79
2023-01-21T11:22:14.487Z,62.68
2023-01-21T11:24:50.033Z,63.17
2023-01-21T11:27:21.481Z,62.71
2023-01-21T11:29:50.598Z,62.35
2023-01-21T11:32:29.313Z,62.29
2023-01-21T11:35:18.829Z,62.31
2023-01-21T11:37:46.640Z,62.78
2023-01-21T11:40:26.253Z,61.81
2023-01-21T11:42:57.227Z,62.15
2023-01-21T11:45:27.684Z,61.83
2023-01-21T11:47:55.353Z,62.45
2023-01-21T11:50:39.603Z,61.42
2023-01-21T11:53:18.792Z,61.95
2023-01-21T11:55:54.621Z,62.87
2023-01-21T11:58:40.483Z,62.83
2023-01-21T12:01:19.192Z,62.49
2023-01-21T12:03:53.222Z,62.54
2023-01-21T12:06:23.767Z,62.26
2023-01-21T12:08:55.722Z,62.47
2023-01-21T12:11:28.197Z,62.21
2023-01-21T12:14:22.485Z,62.06
2023-01-21T12:17:26.972Z,61.70
2023-01-21T12:20:48.248Z,62.48
2023-01-21T12:23:50.998Z,62.66
2023-01-21T12:26:41.507Z,62.64
2023-01-21T12:29:49.101Z,62.47
2023-01-21T12:32:26.624Z,61.92
2023-01-21T12:35:16.908Z,62.35
2023-01-21T12:37:57.200Z,62.05
2023-01-21T12:40:54.366Z,61.73
2023-01-21T12:43:26.875Z,62.91
2023-01-21T12:46:24.454Z,62.73
2023-01-21T12:48:56.466Z,63.51
2023-01-21T12:51:46.042Z,62.46
2023-01-21T12:54:44.153Z,62.57
2023-01-21T12:57:29.845Z,62.57
2023-01-21T13:00:17.502Z,62.06
2023-01-21T13:03:19.207Z,62.04
2023-01-21T13:06:23.991Z,62.24
2023-01-21T13:09:07.833Z,62.04
2023-01-21T13:11:43.720Z,61.57
2023-01-21T13:14:10.573Z,62.30
2023-01-21T13:16:54.580Z,62.39
2023-01-21T13:19:21.668Z,61.98
2023-01-21T13:22:02.712Z,61.96
2023-01-21T13:24:53.021Z,62.29
2023-01-21T13:27:31.497Z,62.03
2023-01-21T13:30:06.462Z,62.34
2023-01-21T13:32:48.574Z,62.07
2023-01-21T13:35:47.065Z,62.15
2023-01-21T13:38:33.304Z,62.39
2023-01-21T13:41:24.742Z,62.84
2023-01-21T13:44:37.866Z,62.95
2023-01-21T13:47:33.642Z,62.92
2023-01-21T13:50:33.108Z,62.75
2023-01-21T13:53:12.314Z,63.04
2023-01-21T13:56:23.550Z,63.03
2023-01-21T13:58:55.706Z,63.18
2023-01-21T14:01:52.263Z,63.19
2023-01-21T14:04:43.776Z,63.54
2023-01-21T14:07:40.359Z,63.53
2023-01-21T14:10:35.462Z,63.51
2023-01-21T14:13:33.573Z,63.45
2023-01-21T14:16:40.077Z,64.01
2023-01-21T14:19:15.486Z,64.11
2023-01-21T14:22:16.179Z,63.78
2023-01-21T14:24:53.188Z,63.77
2023-01-21T14:28:18.879Z,63.66
2023-01-21T14:31:16.104Z,64.14
2023-01-21T14:33:53.016Z,64.02
2023-01-21T14:36:35.189Z,64.16
2023-01-21T14:39:36.083Z,64.25
2023-01-21T14:42:12.508Z,64.14
2023-01-21T14:44:44.088Z,64.23
2023-01-21T14:47:24.760Z,64.14
2023-01-21T14:49:54.114Z,64.24
2023-01-21T14:52:31.464Z,63.79
2023-01-21T14:54:59.725Z,64.04
2023-01-21T14:57:32.172Z,64.20
2023-01-21T15:00:29.835Z,63.98
2023-01-21T15:03:16.856Z,64.38
2023-01-21T15:05:49.403Z,64.25
2023-01-21T15:08:46.026Z,64.17
2023-01-21T15:11:30.453Z,64.41
2023-01-21T15:14:25.504Z,64.44
2023-01-21T15:16:53.546Z,64.56
2023-01-21T15:19:33.487Z,64.44
2023-01-21T15:22:08.225Z,64.52
2023-01-21T15:24:35.061Z,64.62
2023-01-21T15:27:29.131Z,64.24
2023-01-21T15:30:02.004Z,64.42
2023-01-21T15:32:45.900Z,64.32
2023-01-21T15:35:45.393Z,64.25
2023-01-21T15:38:15.198Z,64.33
2023-01-21T15:41:07.235Z,64.41
2023-01-21T15:43:55.063Z,64.38
2023-01-21T15:46:58.251Z,64.57
2023-01-21T15:49:55.661Z,64.65
2023-01-21T15:52:53.621Z,64.63
2023-01-21T15:56:09.523Z,64.69
2023-01-21T15:59:19.832Z,64.64
2023-01-21T16:02:07.985Z,64.96
2023-01-21T16:05:03.050Z,64.49
2023-01-21T16:08:00.229Z,64.92
2023-01-21T16:10:58.644Z,64.69
2023-01-21T16:13:43.593Z,65.15
2023-01-21T16:16:35.645Z,64.65
2023-01-21T16:19:20.415Z,64.22
2023-01-21T16:21:54.567Z,64.74
2023-01-21T16:24:25.919Z,64.98
2023-01-21T16:26:52.936Z,64.77
2023-01-21T16:29:20.209Z,64.64
2023-01-21T16:31:59.286Z,64.60
2023-01-21T16:34:43.396Z,64.58
2023-01-21T16:37:18.029Z,64.91
2023-01-21T16:39:45.618Z,64.99
2023-01-21T16:42:40.967Z,64.59
2023-01-21T16:45:25.967Z,64.44
2023-01-21T16:47:57.325Z,64.97
2023-01-21T16:50:28.717Z,65.01
2023-01-21T16:52:57.560Z,64.93
2023-01-21T16:55:30.701Z,65.15
2023-01-21T16:57:59.337Z,64.81
2023-01-21T17:00:30.630Z,64.83
2023-01-21T17:03:03.604Z,64.92
2023-01-21T17:05:36.899Z,65.01
2023-01-21T17:08:10.590Z,65.15
2023-01-21T17:11:00.819Z,65.05
2023-01-21T17:13:31.149Z,64.92
2023-01-21T17:16:01.290Z,65.09
2023-01-21T17:18:34.684Z,65.00
2023-01-21T17:21:16.375Z,64.90
2023-01-21T17:23:48.267Z,64.92
2023-01-21T17:26:20.726Z,64.96
2023-01-21T17:29:08.381Z,64.81
2023-01-21T17:31:42.223Z,64.69
2023-01-21T17:34:15.374Z,64.90
2023-01-21T17:36:46.285Z,65.27
2023-01-21T17:39:14.213Z,65.16
2023-01-21T17:41:44.827Z,65.18
2023-01-21T17:44:21.585Z,65.32
2023-01-21T17:46:52.881Z,64.75
2023-01-21T17:49:25.643Z,65.31
2023-01-21T17:51:54.634Z,65.08
2023-01-21T17:54:25.876Z,65.04
2023-01-21T17:56:58.642Z,65.14
2023-01-21T17:59:34.317Z,64.97
2023-01-21T18:02:04.537Z,65.01
2023-01-21T18:04:31.959Z,64.94
2023-01-21T18:06:58.917Z,65.19
2023-01-21T18:09:28.244Z,65.19
2023-01-21T18:11:57.477Z,65.39
2023-01-21T18:14:26.093Z,65.12
2023-01-21T18:16:54.170Z,65.36
2023-01-21T18:19:40.606Z,65.27
2023-01-21T18:22:20.869Z,65.21
2023-01-21T18:24:47.850Z,65.29
2023-01-21T18:27:15.840Z,65.20
2023-01-21T18:29:43.322Z,65.41
2023-01-21T18:32:15.447Z,65.57
2023-01-21T18:34:42.503Z,65.32
2023-01-21T18:37:20.593Z,65.24
2023-01-21T18:39:47.776Z,65.58
2023-01-21T18:42:17.803Z,65.44
2023-01-21T18:44:45.323Z,65.32
2023-01-21T18:47:18.719Z,65.39
2023-01-21T18:49:49.389Z,65.55
2023-01-21T18:52:19.781Z,65.38
2023-01-21T18:54:47.256Z,65.49
2023-01-21T18:57:22.595Z,65.87
2023-01-21T18:59:49.675Z,65.57
2023-01-21T19:02:19.651Z,65.28
2023-01-21T19:04:47.815Z,65.31
2023-01-21T19:07:20.269Z,65.43
2023-01-21T19:09:50.405Z,65.53
2023-01-21T19:12:21.217Z,65.48
2023-01-21T19:14:48.829Z,65.59
2023-01-21T19:17:38.120Z,65.48
2023-01-21T19:20:06.288Z,65.93
2023-01-21T19:22:33.205Z,65.49
2023-01-21T19:25:00.201Z,65.30
2023-01-21T19:27:32.650Z,65.28
2023-01-21T19:29:59.601Z,65.46
2023-01-21T19:32:26.882Z,65.19
2023-01-21T19:34:55.771Z,65.80
2023-01-21T19:37:24.601Z,65.59
2023-01-21T19:39:51.754Z,65.80
2023-01-21T19:42:18.944Z,65.51
2023-01-21T19:44:45.837Z,65.79
2023-01-21T19:47:25.133Z,65.54
2023-01-21T19:49:52.192Z,65.42
2023-01-21T19:52:19.104Z,65.13
2023-01-21T19:54:46.276Z,65.34
2023-01-21T19:57:17.234Z,65.20
2023-01-21T19:59:45.398Z,65.66
2023-01-21T20:02:12.863Z,65.48
2023-01-21T20:04:39.894Z,65.54
2023-01-21T20:07:07.236Z,65.42
2023-01-21T20:09:34.365Z,65.27
2023-01-21T20:12:03.489Z,65.66
2023-01-21T20:14:33.559Z,65.58
2023-01-21T20:17:02.377Z,65.70
2023-01-21T20:19:29.513Z,65.66
2023-01-21T20:22:02.171Z,65.61
2023-01-21T20:24:33.422Z,65.37
2023-01-21T20:27:02.705Z,65.53
2023-01-21T20:29:29.912Z,65.51
2023-01-21T20:31:58.308Z,65.69
2023-01-21T20:34:27.595Z,65.76
2023-01-21T20:36:55.308Z,65.51
2023-01-21T20:39:22.799Z,65.67
2023-01-21T20:41:50.295Z,65.79
2023-01-21T20:44:17.591Z,65.79
2023-01-21T20:46:45.870Z,65.62
2023-01-21T20:49:13.391Z,65.84
2023-01-21T20:51:40.467Z,65.55
2023-01-21T20:54:07.491Z,65.70
2023-01-21T20:56:34.486Z,65.53
2023-01-21T20:59:01.723Z,65.59
2023-01-21T21:01:30.057Z,65.54
2023-01-21T21:03:57.302Z,65.54
2023-01-21T21:06:28.670Z,65.57
2023-01-21T21:08:56.256Z,65.43
2023-01-21T21:11:23.597Z,65.44
2023-01-21T21:13:52.505Z,65.19
2023-01-21T21:16:30.060Z,65.35
2023-01-21T21:18:57.738Z,65.29
2023-01-21T21:21:25.121Z,65.50
2023-01-21T21:23:53.033Z,65.36
2023-01-21T21:26:26.407Z,65.51
2023-01-21T21:28:54.848Z,65.40
2023-01-21T21:31:23.049Z,65.25
2023-01-21T21:33:50.487Z,65.36
2023-01-21T21:36:21.450Z,65.52
2023-01-21T21:38:49.008Z,65.30
2023-01-21T21:41:37.984Z,65.34
2023-01-21T21:44:06.108Z,65.48
2023-01-21T21:46:51.637Z,65.36
2023-01-21T21:49:18.712Z,65.31
2023-01-21T21:51:46.146Z,65.26
2023-01-21T21:54:15.643Z,65.30
2023-01-21T21:56:43.381Z,65.26
2023-01-21T21:59:12.260Z,65.06
2023-01-21T22:01:41.576Z,65.05
2023-01-21T22:04:08.730Z,65.02
2023-01-21T22:06:35.888Z,64.88
2023-01-21T22:09:03.593Z,64.77
2023-01-21T22:11:30.547Z,64.88
2023-01-21T22:13:58.402Z,64.79
2023-01-21T22:16:28.933Z,64.81
2023-01-21T22:18:58.453Z,65.05
2023-01-21T22:21:32.826Z,64.87
2023-01-21T22:24:02.443Z,64.94
2023-01-21T22:26:29.836Z,64.90
2023-01-21T22:28:57.129Z,64.71
2023-01-21T22:31:28.665Z,64.75
2023-01-21T22:33:57.804Z,64.75
2023-01-21T22:36:28.347Z,64.59
2023-01-21T22:38:56.322Z,64.49
2023-01-21T22:41:24.850Z,64.37
2023-01-21T22:43:53.424Z,64.24
2023-01-21T22:46:25.894Z,64.29
2023-01-21T22:48:55.888Z,64.30
2023-01-21T22:51:23.700Z,64.67
2023-01-21T22:53:52.417Z,64.66
2023-01-21T22:56:31.416Z,64.59
2023-01-21T22:59:07.247Z,64.56
2023-01-21T23:01:36.440Z,65.08
2023-01-21T23:04:03.589Z,64.44
2023-01-21T23:06:30.626Z,64.99
2023-01-21T23:08:57.582Z,64.42
2023-01-21T23:11:24.534Z,64.55
2023-01-21T23:13:53.222Z,64.38
2023-01-21T23:16:21.547Z,64.81
2023-01-21T23:18:49.449Z,64.50
2023-01-21T23:21:20.606Z,64.64
2023-01-21T23:23:48.367Z,64.51
2023-01-21T23:26:15.966Z,64.47
2023-01-21T23:28:43.210Z,64.65
2023-01-21T23:31:16.507Z,64.70
2023-01-21T23:33:43.761Z,64.97
2023-01-21T23:36:13.492Z,64.66
2023-01-21T23:38:41.884Z,64.74
2023-01-21T23:41:12.342Z,64.86
2023-01-21T23:43:40.169Z,64.91
2023-01-21T23:46:10.769Z,64.96
2023-01-21T23:48:38.224Z,65.04
2023-01-21T23:51:08.274Z,65.09
2023-01-21T23:53:35.678Z,64.92
2023-01-21T23:56:10.936Z,65.37
2023-01-21T23:58:38.059Z,65.16
